SBCP/CAW METAR and TAF weather

Enter ICAO airport designator
Station Type Date Time Source
SBCP METAR 2021/10/19 21:10 UTC NOAA

SBCP 192110Z 21012KT 2000 -RA BR BKN005 OVC040 21/20 Q1016


Station Type Date Time Source
SBCP Decoded METAR 2021/10/19 21:10 UTC NOAA

Campos, Brazil (SBCP) 21-45S 041-20W 11M
Oct 19, 2021 - 05:10 PM EDT / 2021.10.19 2110 UTC
Wind: from the SSW (210 degrees) at 14 MPH (12 KT):0
Visibility: 1 mile(s):0
Sky conditions: overcast
Weather: light rain; mist
Temperature: 69 F (21 C)
Dew Point: 68 F (20 C)
Relative Humidity: 94%
Pressure (altimeter): 30.00 in. Hg (1016 hPa)
ob: SBCP 192110Z 21012KT 2000 -RA BR BKN005 OVC040 21/20 Q1016
cycle: 21

Station Type Date Time Source
SBCP TAF 2021/10/20 06:58 UTC NOAA

TAF SBCP 200357Z 2006/2018 18010KT 4000 RA BR BKN007 BKN030 TN19/2010Z TX22/2018Z
BECMG 2009/2011 21010KT
BECMG 2012/2015 17012KT 7000 NSW BKN012 BKN030
RMK PHC

Example: see airport list